KBBD/BBD METAR and TAF weather

Enter ICAO airport designator
Station Type Date Time Source
KBBD METAR 2024/05/28 23:55 UTC NOAA

KBBD 282355Z AUTO 13007G15KT 10SM CLR 26/15 A3003 RMK AO2


Station Type Date Time Source
KBBD Decoded METAR 2024/05/28 23:55 UTC NOAA

Brady, Curtis Field Airport, TX, United States (KBBD) 31-10-45N 099-19-26W
May 28, 2024 - 07:55 PM EDT / 2024.05.28 2355 UTC
Wind: from the SE (130 degrees) at 8 MPH (7 KT) gusting to 17 MPH (15 KT):0
Visibility: 10 mile(s):0
Sky conditions: clear
Temperature: 78 F (26 C)
Dew Point: 59 F (15 C)
Relative Humidity: 50%
Pressure (altimeter): 30.03 in. Hg (1016 hPa)
ob: KBBD 282355Z AUTO 13007G15KT 10SM CLR 26/15 A3003 RMK AO2
cycle: 0

Station Type Date Time Source
KBBD TAF 2024/05/28 22:04 UTC NOAA